Time;durP1;ratioP1;P1;durP2;ratioP2;P2;SDS_P1;SDS_P2;PMS_P1;PMS_P2;Temp;Humidity;BMP_temperature;BMP_pressure;BME280_temperature;BME280_humidity;BME280_pressure;Samples;Min_cycle;Max_cycle;Signal;HPM_P1;HPM_P2
2021/01/27 00:00:36;;;;;;;5.27;3.90;;;3.80;99.90;;;;;;5099711;28;20186;-86
2021/01/27 00:03:03;;;;;;;6.30;3.97;;;3.80;99.90;;;;;;5099670;28;20641;-86
2021/01/27 00:05:42;;;;;;;5.00;3.57;;;3.80;99.90;;;;;;5098515;28;20171;-85
2021/01/27 00:08:08;;;;;;;5.97;3.93;;;3.70;99.90;;;;;;5098902;28;20212;-87
2021/01/27 00:10:35;;;;;;;6.80;4.17;;;3.60;99.90;;;;;;5117049;28;20527;-84
2021/01/27 00:13:03;;;;;;;8.00;4.10;;;3.60;99.90;;;;;;5098934;28;20171;-85
2021/01/27 00:15:32;;;;;;;6.30;4.00;;;3.60;99.90;;;;;;5099084;28;20216;-86
2021/01/27 00:18:00;;;;;;;6.93;4.03;;;3.60;99.90;;;;;;5105852;28;20182;-87
2021/01/27 00:20:27;;;;;;;7.50;4.13;;;3.50;99.90;;;;;;5107791;28;20190;-85
2021/01/27 00:22:54;;;;;;;7.07;4.67;;;3.50;99.90;;;;;;5107602;28;20222;-84
2021/01/27 00:25:25;;;;;;;4.80;3.47;;;3.40;99.90;;;;;;5099219;28;20175;-85
2021/01/27 00:27:50;;;;;;;6.87;3.90;;;3.40;99.90;;;;;;5099025;28;20646;-87
2021/01/27 00:30:21;;;;;;;6.17;4.57;;;3.40;99.90;;;;;;5098702;28;20174;-85
2021/01/27 00:32:49;;;;;;;6.00;4.30;;;3.30;99.90;;;;;;5098810;28;20236;-85
2021/01/27 00:35:17;;;;;;;7.87;4.80;;;3.30;99.90;;;;;;5098850;28;20170;-85
2021/01/27 00:37:42;;;;;;;6.70;4.93;;;3.30;99.90;;;;;;5116114;28;20221;-86
2021/01/27 00:40:09;;;;;;;6.73;5.40;;;3.20;99.90;;;;;;5098290;28;20635;-85
2021/01/27 00:42:35;;;;;;;7.93;4.47;;;3.20;99.90;;;;;;5097951;28;20175;-87
2021/01/27 00:45:01;;;;;;;6.57;4.67;;;3.20;99.90;;;;;;5098169;28;20167;-86
2021/01/27 00:47:27;;;;;;;7.70;4.83;;;3.20;99.90;;;;;;5098045;28;20269;-86
2021/01/27 00:49:53;;;;;;;8.30;4.90;;;3.10;99.90;;;;;;5098276;28;20626;-87
2021/01/27 00:52:19;;;;;;;9.03;5.20;;;3.10;99.90;;;;;;5097762;28;20179;-85
2021/01/27 00:54:44;;;;;;;6.70;5.00;;;3.10;99.90;;;;;;5098921;28;20716;-84
2021/01/27 00:57:10;;;;;;;7.20;5.00;;;3.10;99.90;;;;;;5098667;28;20210;-85
2021/01/27 00:59:35;;;;;;;8.63;5.83;;;3.10;99.90;;;;;;5115969;28;20208;-87
2021/01/27 01:02:01;;;;;;;8.60;5.47;;;3.00;99.90;;;;;;5097821;28;20223;-85
2021/01/27 01:04:27;;;;;;;7.63;5.70;;;3.00;99.90;;;;;;5097368;28;20171;-86
2021/01/27 01:06:52;;;;;;;6.87;6.07;;;3.00;99.90;;;;;;5097065;28;20590;-86
2021/01/27 01:09:18;;;;;;;8.20;5.50;;;3.00;99.90;;;;;;5097173;28;20175;-86
2021/01/27 01:11:43;;;;;;;8.60;5.60;;;3.00;99.90;;;;;;5097416;28;20299;-86
2021/01/27 01:14:09;;;;;;;7.57;5.33;;;2.90;99.90;;;;;;5097343;28;20175;-86
2021/01/27 01:16:38;;;;;;;6.80;5.13;;;2.90;99.90;;;;;;5096523;28;20231;-85
2021/01/27 01:19:06;;;;;;;7.37;5.40;;;2.90;99.90;;;;;;5096650;28;20258;-86
2021/01/27 01:21:31;;;;;;;7.60;5.37;;;2.80;99.90;;;;;;5097135;28;20643;-86
2021/01/27 01:23:57;;;;;;;7.37;5.43;;;2.80;99.90;;;;;;5097005;28;20238;-85
2021/01/27 01:26:22;;;;;;;7.27;4.87;;;2.70;99.90;;;;;;5097262;28;20174;-85
2021/01/27 01:28:48;;;;;;;5.97;4.97;;;2.60;99.90;;;;;;5097203;28;20220;-86
2021/01/27 01:31:14;;;;;;;8.53;5.17;;;2.70;99.90;;;;;;5097139;28;20259;-85
2021/01/27 01:33:39;;;;;;;5.53;4.70;;;2.60;99.90;;;;;;5096351;28;20243;-86
2021/01/27 01:36:05;;;;;;;6.97;4.63;;;2.60;99.90;;;;;;5096852;28;20205;-87
2021/01/27 01:38:31;;;;;;;5.83;4.03;;;2.60;99.90;;;;;;5096735;28;20694;-86
2021/01/27 01:41:03;;;;;;;6.20;4.20;;;2.60;99.90;;;;;;5096728;28;20183;-85
2021/01/27 01:43:30;;;;;;;7.03;3.70;;;2.70;99.90;;;;;;5096682;28;20186;-85
2021/01/27 01:46:20;;;;;;;4.60;3.40;;;2.70;99.90;;;;;;5096747;28;20523;-86
2021/01/27 01:48:50;;;;;;;5.83;3.97;;;2.70;99.90;;;;;;5096211;28;20206;-86
2021/01/27 01:51:39;;;;;;;4.40;3.27;;;2.70;99.90;;;;;;5096572;28;20192;-86
2021/01/27 01:54:26;;;;;;;7.93;3.50;;;2.70;99.90;;;;;;5096225;28;20631;-85
2021/01/27 01:57:01;;;;;;;4.77;3.23;;;2.80;99.90;;;;;;5096096;28;20194;-85
2021/01/27 01:59:31;;;;;;;4.03;3.10;;;2.80;99.90;;;;;;5096458;28;20636;-86
2021/01/27 02:02:06;;;;;;;3.87;3.47;;;2.80;99.90;;;;;;5096484;28;20175;-85
2021/01/27 02:04:51;;;;;;;4.67;3.00;;;2.80;99.90;;;;;;5095781;28;20170;-87
2021/01/27 02:07:17;;;;;;;4.43;3.10;;;2.80;99.90;;;;;;5096447;28;20166;-85
2021/01/27 02:09:43;;;;;;;3.23;2.60;;;2.80;99.90;;;;;;5095807;28;20548;-85
2021/01/27 02:12:36;;;;;;;4.33;2.70;;;2.80;99.90;;;;;;5096206;28;20174;-85
2021/01/27 02:15:32;;;;;;;7.63;3.00;;;2.80;99.90;;;;;;5096392;28;20170;-85
2021/01/27 02:18:22;;;;;;;3.87;2.70;;;2.80;99.90;;;;;;5096028;28;20627;-86
2021/01/27 02:21:13;;;;;;;3.50;2.83;;;2.90;99.90;;;;;;5096312;28;20182;-87
2021/01/27 02:24:13;;;;;;;3.43;2.53;;;2.90;99.90;;;;;;5095909;28;20726;-85
2021/01/27 02:27:13;;;;;;;2.77;2.20;;;2.90;99.90;;;;;;5096091;28;20167;-86
2021/01/27 02:29:59;;;;;;;3.03;2.33;;;2.90;99.90;;;;;;5090591;28;20183;-85
2021/01/27 02:32:59;;;;;;;4.20;2.27;;;2.90;99.90;;;;;;5095747;28;20171;-85
2021/01/27 02:35:36;;;;;;;3.47;2.40;;;2.90;99.90;;;;;;5095756;28;20171;-85
2021/01/27 02:38:18;;;;;;;4.63;2.10;;;2.90;99.90;;;;;;5096119;28;20183;-87
2021/01/27 02:41:33;;;;;;;3.10;2.20;;;2.90;99.90;;;;;;5113988;28;20178;-86
2021/01/27 02:44:05;;;;;;;3.83;2.40;;;2.90;99.90;;;;;;5091547;28;20244;-86
2021/01/27 02:46:51;;;;;;;3.40;2.10;;;3.00;99.90;;;;;;5095331;28;20261;-86
2021/01/27 02:49:34;;;;;;;2.97;2.30;;;3.00;99.90;;;;;;5095822;28;20666;-85
2021/01/27 02:52:07;;;;;;;3.03;2.07;;;3.00;99.90;;;;;;5113905;28;20249;-86
2021/01/27 02:55:31;;;;;;;5.87;2.20;;;2.90;99.90;;;;;;5095675;28;20175;-86
2021/01/27 02:58:18;;;;;;;2.63;1.80;;;2.90;99.90;;;;;;5014824;28;20208;-85
2021/01/27 03:00:45;;;;;;;3.07;2.10;;;2.90;99.90;;;;;;5089941;28;20690;-85
2021/01/27 03:03:45;;;;;;;2.87;2.10;;;2.90;99.90;;;;;;5095893;28;20716;-85
2021/01/27 03:06:15;;;;;;;2.43;2.17;;;2.90;99.90;;;;;;5074047;28;20178;-85
2021/01/27 03:08:55;;;;;;;3.90;2.23;;;3.00;99.90;;;;;;5095964;28;20167;-85
2021/01/27 03:11:33;;;;;;;2.67;2.20;;;3.00;99.90;;;;;;5095523;28;20543;-85
2021/01/27 03:14:00;;;;;;;3.90;1.90;;;3.00;99.90;;;;;;5095734;28;20190;-85
2021/01/27 03:16:34;;;;;;;3.63;2.20;;;3.00;99.90;;;;;;5095381;28;20726;-85
2021/01/27 03:19:08;;;;;;;3.27;2.30;;;3.00;99.90;;;;;;5095558;28;20174;-85
2021/01/27 03:21:39;;;;;;;2.93;2.00;;;3.00;99.90;;;;;;5095442;28;20179;-85
2021/01/27 03:24:14;;;;;;;3.40;2.17;;;3.00;99.90;;;;;;5095482;28;20171;-86
2021/01/27 03:26:56;;;;;;;2.67;2.00;;;3.00;99.90;;;;;;5095139;28;20167;-85
2021/01/27 03:29:38;;;;;;;4.00;2.27;;;3.00;99.90;;;;;;5095620;28;20206;-86
2021/01/27 03:32:11;;;;;;;5.13;2.53;;;3.00;99.90;;;;;;5095151;28;20168;-86
2021/01/27 03:34:44;;;;;;;3.70;2.40;;;3.00;99.90;;;;;;5095025;28;20260;-84
2021/01/27 03:37:19;;;;;;;4.53;2.53;;;3.00;99.90;;;;;;5094969;28;20569;-85
2021/01/27 03:39:48;;;;;;;4.13;2.77;;;3.00;99.90;;;;;;5095429;28;20174;-85
2021/01/27 03:42:25;;;;;;;2.90;2.33;;;3.00;99.90;;;;;;5116964;28;20237;-85
2021/01/27 03:44:58;;;;;;;4.93;2.50;;;3.00;99.90;;;;;;5106501;28;20171;-86
2021/01/27 03:47:49;;;;;;;4.00;2.57;;;3.00;99.90;;;;;;5098888;28;20623;-87
2021/01/27 03:50:20;;;;;;;4.30;2.70;;;3.10;99.90;;;;;;5099054;28;20175;-86
2021/01/27 03:53:04;;;;;;;3.83;2.63;;;3.00;99.90;;;;;;5098446;28;20506;-86
2021/01/27 03:55:48;;;;;;;4.20;3.07;;;3.00;99.90;;;;;;5116943;28;20647;-85
2021/01/27 03:58:21;;;;;;;3.77;2.77;;;3.00;99.90;;;;;;5099084;28;20178;-86
2021/01/27 04:00:49;;;;;;;4.20;3.00;;;3.00;99.90;;;;;;5098271;28;20182;-86
2021/01/27 04:03:19;;;;;;;3.53;2.60;;;3.00;99.90;;;;;;5098465;28;20199;-84
2021/01/27 04:05:45;;;;;;;5.07;3.10;;;3.00;99.90;;;;;;5098473;28;20309;-85
2021/01/27 04:08:11;;;;;;;4.07;3.13;;;3.00;99.90;;;;;;5098541;28;20171;-84
2021/01/27 04:10:37;;;;;;;4.77;3.30;;;3.00;99.90;;;;;;5098385;28;20264;-85
2021/01/27 04:13:03;;;;;;;5.73;3.67;;;3.00;99.90;;;;;;5098379;28;20174;-85
2021/01/27 04:15:29;;;;;;;3.80;2.80;;;3.00;99.90;;;;;;5116565;28;20499;-85
2021/01/27 04:17:55;;;;;;;9.33;3.90;;;3.00;99.90;;;;;;5098053;28;20206;-85
2021/01/27 04:20:22;;;;;;;4.80;3.53;;;3.00;99.90;;;;;;5098404;28;20228;-85
2021/01/27 04:22:47;;;;;;;6.13;3.80;;;3.00;99.90;;;;;;5098010;28;20725;-85
2021/01/27 04:25:14;;;;;;;5.93;3.73;;;3.00;99.90;;;;;;5098093;28;20174;-86
2021/01/27 04:27:40;;;;;;;4.83;3.70;;;3.00;99.90;;;;;;5097812;28;20633;-86
2021/01/27 04:30:08;;;;;;;4.43;3.67;;;3.00;99.90;;;;;;5098104;28;20179;-87
2021/01/27 04:32:33;;;;;;;4.23;3.23;;;3.00;99.90;;;;;;5097888;28;20202;-84
2021/01/27 04:34:59;;;;;;;4.67;3.40;;;3.00;99.90;;;;;;5098635;28;20594;-86
2021/01/27 04:37:25;;;;;;;6.13;3.60;;;2.90;99.90;;;;;;5116314;28;20248;-86
2021/01/27 04:39:50;;;;;;;5.47;3.80;;;2.90;99.90;;;;;;5098384;28;20167;-85
2021/01/27 04:42:26;;;;;;;6.07;4.07;;;2.90;99.90;;;;;;5101093;28;20702;-88
2021/01/27 04:44:54;;;;;;;5.60;4.20;;;2.90;99.90;;;;;;5116783;28;20214;-86
2021/01/27 04:47:39;;;;;;;8.50;4.23;;;2.90;99.90;;;;;;5097898;28;20174;-86
2021/01/27 04:50:12;;;;;;;8.43;4.23;;;2.90;99.90;;;;;;5097909;28;20202;-84
2021/01/27 04:52:51;;;;;;;5.37;4.30;;;2.90;99.90;;;;;;5096573;28;20182;-85
2021/01/27 04:55:45;;;;;;;4.90;4.13;;;3.00;99.90;;;;;;5097734;28;20181;-85
2021/01/27 04:58:45;;;;;;;6.00;3.97;;;3.00;99.90;;;;;;5097137;28;20187;-85
2021/01/27 05:01:43;;;;;;;5.60;4.10;;;3.00;99.90;;;;;;5097474;28;20226;-86
2021/01/27 05:04:33;;;;;;;6.47;4.90;;;3.00;99.90;;;;;;5115381;28;20186;-86
2021/01/27 05:07:05;;;;;;;7.20;5.00;;;3.00;99.90;;;;;;5097568;28;20197;-86
2021/01/27 05:10:04;;;;;;;8.47;4.50;;;3.00;99.90;;;;;;5096967;28;20221;-84
2021/01/27 05:12:40;;;;;;;5.07;4.33;;;3.00;99.90;;;;;;5115045;28;20178;-87
2021/01/27 05:15:07;;;;;;;5.40;4.90;;;3.00;99.90;;;;;;5097394;28;20661;-86
2021/01/27 05:17:33;;;;;;;8.37;6.33;;;3.00;99.90;;;;;;5096934;28;20207;-85
2021/01/27 05:19:58;;;;;;;7.40;5.77;;;3.00;99.90;;;;;;5097067;28;20258;-84
2021/01/27 05:22:27;;;;;;;6.03;4.97;;;3.00;99.90;;;;;;5115099;28;20190;-85
2021/01/27 05:24:53;;;;;;;6.63;4.83;;;3.00;99.90;;;;;;5096725;28;20802;-86
2021/01/27 05:27:29;;;;;;;7.50;5.20;;;3.00;99.90;;;;;;5096530;28;20186;-85
2021/01/27 05:30:00;;;;;;;7.80;4.40;;;3.00;99.90;;;;;;5096944;28;20178;-86
2021/01/27 05:32:26;;;;;;;6.10;4.90;;;3.00;99.90;;;;;;5096883;28;20285;-85
2021/01/27 05:34:54;;;;;;;7.33;4.97;;;3.00;99.90;;;;;;5096606;28;20689;-86
2021/01/27 05:37:34;;;;;;;6.37;4.83;;;3.00;99.90;;;;;;5096592;28;20667;-86
2021/01/27 05:40:06;;;;;;;6.10;4.57;;;3.00;99.90;;;;;;5096635;28;20308;-86
2021/01/27 05:42:34;;;;;;;5.70;4.43;;;3.00;99.90;;;;;;5097030;28;20167;-85
2021/01/27 05:45:30;;;;;;;4.93;3.90;;;3.00;99.90;;;;;;5096614;28;20199;-86
2021/01/27 05:48:09;;;;;;;5.67;4.30;;;3.00;99.90;;;;;;5075823;28;20213;-85
2021/01/27 05:50:37;;;;;;;5.83;4.27;;;3.00;99.90;;;;;;5096534;28;20262;-87
2021/01/27 05:53:14;;;;;;;8.10;4.80;;;3.00;99.90;;;;;;5096749;28;20171;-85
2021/01/27 05:55:55;;;;;;;5.87;4.63;;;3.00;99.90;;;;;;5114469;28;20167;-85
2021/01/27 05:58:20;;;;;;;6.43;5.20;;;3.00;99.90;;;;;;5108677;28;20186;-85
2021/01/27 06:00:47;;;;;;;5.20;4.70;;;3.00;99.90;;;;;;5107470;28;20650;-86
2021/01/27 06:03:22;;;;;;;6.13;4.67;;;3.10;99.90;;;;;;5096145;28;20178;-86
2021/01/27 06:05:48;;;;;;;6.33;4.90;;;3.10;99.90;;;;;;5096124;28;20171;-85
2021/01/27 06:08:21;;;;;;;6.27;4.77;;;3.20;99.90;;;;;;5096509;28;20175;-84
2021/01/27 06:10:48;;;;;;;6.47;4.47;;;3.20;99.90;;;;;;5095606;28;20282;-85
2021/01/27 06:13:23;;;;;;;5.40;4.40;;;3.20;99.90;;;;;;5096067;28;20595;-86
2021/01/27 06:15:50;;;;;;;5.97;4.60;;;3.20;99.90;;;;;;5114073;28;20169;-86
2021/01/27 06:18:24;;;;;;;5.30;4.10;;;3.20;99.90;;;;;;5095849;28;20179;-86
2021/01/27 06:21:15;;;;;;;5.53;4.20;;;3.20;99.90;;;;;;5095649;28;20166;-86
2021/01/27 06:23:52;;;;;;;6.00;4.93;;;3.20;99.90;;;;;;5095582;28;20554;-86
2021/01/27 06:26:24;;;;;;;5.77;4.43;;;3.20;99.90;;;;;;5096011;28;20200;-87
2021/01/27 06:29:24;;;;;;;7.67;5.27;;;3.20;99.90;;;;;;5096313;28;20174;-85
2021/01/27 06:31:55;;;;;;;5.30;4.53;;;3.20;99.90;;;;;;5095792;28;20174;-85
2021/01/27 06:34:27;;;;;;;5.27;4.33;;;3.30;99.90;;;;;;5114367;28;20174;-86
2021/01/27 06:37:31;;;;;;;7.77;4.27;;;3.20;99.90;;;;;;5096124;28;20681;-86
2021/01/27 06:40:02;;;;;;;6.20;4.50;;;3.20;99.90;;;;;;5094959;28;20166;-85
2021/01/27 06:42:54;;;;;;;8.20;5.43;;;3.30;99.90;;;;;;5095332;28;20272;-86
2021/01/27 06:45:58;;;;;;;6.10;4.67;;;3.30;99.90;;;;;;5095734;28;20206;-87
2021/01/27 06:48:57;;;;;;;6.27;4.30;;;3.30;99.90;;;;;;5096233;28;20174;-90
2021/01/27 06:51:46;;;;;;;6.63;4.33;;;3.30;99.90;;;;;;5095837;28;20167;-89
2021/01/27 06:54:36;;;;;;;5.60;4.40;;;3.40;99.90;;;;;;5096835;28;20270;-87
2021/01/27 06:57:13;;;;;;;6.40;4.63;;;3.40;99.90;;;;;;5098941;28;20206;-90
2021/01/27 06:59:57;;;;;;;7.27;5.60;;;3.40;99.90;;;;;;5096367;28;20176;-85
2021/01/27 07:02:53;;;;;;;7.07;4.80;;;3.40;99.90;;;;;;5115040;28;20246;-85
2021/01/27 07:05:19;;;;;;;7.30;5.00;;;3.40;99.90;;;;;;5095399;28;20182;-85
2021/01/27 07:08:03;;;;;;;7.90;6.07;;;3.50;99.90;;;;;;5095384;28;20167;-88
2021/01/27 07:10:47;;;;;;;5.73;5.03;;;3.40;99.90;;;;;;5095706;28;20235;-87
2021/01/27 07:13:18;;;;;;;6.50;5.23;;;3.50;99.90;;;;;;5096491;28;20175;-89
2021/01/27 07:16:06;;;;;;;7.10;5.50;;;3.50;99.90;;;;;;5093107;28;20241;-88
2021/01/27 07:18:50;;;;;;;7.57;5.47;;;3.50;99.90;;;;;;5106848;28;20190;-89
2021/01/27 07:21:31;;;;;;;7.13;5.40;;;3.40;99.90;;;;;;5106402;28;20203;-90
2021/01/27 07:24:24;;;;;;;8.10;6.33;;;3.40;99.90;;;;;;5097804;28;20191;-89
2021/01/27 07:27:10;;;;;;;6.97;5.77;;;3.40;99.90;;;;;;5096263;28;20167;-88
2021/01/27 07:29:48;;;;;;;7.77;5.43;;;3.30;99.90;;;;;;5095805;28;20178;-92
2021/01/27 07:32:20;;;;;;;7.10;6.40;;;3.30;99.90;;;;;;5095279;28;20171;-89
2021/01/27 07:34:58;;;;;;;7.50;6.27;;;3.30;99.90;;;;;;5095093;28;20179;-85
2021/01/27 07:37:32;;;;;;;7.43;5.80;;;3.30;99.90;;;;;;5094812;28;20740;-86
2021/01/27 07:40:22;;;;;;;8.07;6.53;;;3.40;99.90;;;;;;5094859;28;20703;-88
2021/01/27 07:43:10;;;;;;;8.43;6.33;;;3.50;99.90;;;;;;5094746;28;20631;-86
2021/01/27 07:45:46;;;;;;;7.33;5.90;;;3.50;99.90;;;;;;5102787;28;20184;-88
2021/01/27 07:48:14;;;;;;;8.43;6.13;;;3.40;99.90;;;;;;5115008;28;20257;-88
2021/01/27 07:50:40;;;;;;;7.30;6.50;;;3.40;99.90;;;;;;5114918;28;20171;-86
2021/01/27 07:53:35;;;;;;;7.83;6.50;;;3.40;99.90;;;;;;5115317;28;20639;-86
2021/01/27 07:56:13;;;;;;;7.60;6.50;;;3.50;99.90;;;;;;5115863;28;20246;-88
2021/01/27 07:58:50;;;;;;;8.63;7.33;;;3.50;99.90;;;;;;5106527;28;20170;-87
2021/01/27 08:01:24;;;;;;;7.10;6.40;;;3.40;99.90;;;;;;5090083;28;20174;-87
2021/01/27 08:04:09;;;;;;;8.60;6.80;;;3.40;99.90;;;;;;5097919;28;20169;-88
2021/01/27 08:07:01;;;;;;;7.97;6.70;;;3.50;99.90;;;;;;5097291;28;20158;-86
2021/01/27 08:09:27;;;;;;;11.13;7.00;;;3.70;99.90;;;;;;5092083;28;20215;-87
2021/01/27 08:12:12;;;;;;;9.30;7.40;;;3.50;99.90;;;;;;5097009;28;20521;-86
2021/01/27 08:15:12;;;;;;;7.80;7.00;;;3.50;99.90;;;;;;5096226;28;20167;-85
2021/01/27 08:17:43;;;;;;;8.60;6.90;;;3.60;99.90;;;;;;5076338;28;20273;-86
2021/01/27 08:20:29;;;;;;;8.20;6.77;;;3.60;99.90;;;;;;5094272;28;20172;-86
2021/01/27 08:22:59;;;;;;;8.77;7.43;;;3.60;99.90;;;;;;5093845;28;20333;-87
2021/01/27 08:26:03;;;;;;;8.90;7.47;;;3.60;99.90;;;;;;5076994;28;20175;-87
2021/01/27 08:28:38;;;;;;;10.13;7.60;;;3.60;99.90;;;;;;5076097;28;20175;-85
2021/01/27 08:31:12;;;;;;;9.57;7.77;;;3.70;99.90;;;;;;5080055;28;20175;-86
2021/01/27 08:33:52;;;;;;;11.13;7.87;;;3.60;99.90;;;;;;5092337;28;20166;-90
2021/01/27 08:36:38;;;;;;;11.33;8.20;;;3.70;99.90;;;;;;5096569;28;20191;-86
2021/01/27 08:39:11;;;;;;;8.90;8.00;;;3.70;99.90;;;;;;5095739;28;20178;-86
2021/01/27 08:42:00;;;;;;;8.77;7.87;;;3.70;99.90;;;;;;5096696;28;20207;-84
2021/01/27 08:44:37;;;;;;;9.87;8.87;;;3.90;99.90;;;;;;5096785;28;20171;-86
2021/01/27 08:47:14;;;;;;;10.67;8.03;;;3.80;99.90;;;;;;5113008;28;20224;-86
2021/01/27 08:49:45;;;;;;;10.00;8.23;;;3.90;99.90;;;;;;5114918;28;20183;-88
2021/01/27 08:52:10;;;;;;;9.50;8.27;;;3.90;99.90;;;;;;5113241;28;20220;-86
2021/01/27 08:54:39;;;;;;;11.37;9.07;;;3.90;99.90;;;;;;5114049;28;20170;-88
2021/01/27 08:57:30;;;;;;;14.00;9.40;;;3.90;99.90;;;;;;5114653;28;20247;-86
2021/01/27 09:00:26;;;;;;;11.53;9.43;;;3.90;99.90;;;;;;5114455;28;20170;-87
2021/01/27 09:03:00;;;;;;;11.57;9.80;;;4.00;99.90;;;;;;5115130;28;20174;-85
2021/01/27 09:05:26;;;;;;;12.67;9.20;;;4.20;99.90;;;;;;5126823;28;20201;-84
2021/01/27 09:07:56;;;;;;;11.17;9.23;;;4.00;99.90;;;;;;5113728;28;20635;-88
2021/01/27 09:10:33;;;;;;;13.17;10.50;;;4.10;99.90;;;;;;5114482;28;20631;-87
2021/01/27 09:13:18;;;;;;;12.10;10.20;;;4.10;99.90;;;;;;5096280;28;20269;-87
2021/01/27 09:15:59;;;;;;;10.53;8.70;;;4.10;99.90;;;;;;5096606;28;20244;-84
2021/01/27 09:18:25;;;;;;;10.43;9.33;;;4.10;99.90;;;;;;5095718;28;20182;-87
2021/01/27 09:20:51;;;;;;;12.40;10.03;;;4.20;99.90;;;;;;5097132;28;20708;-88
2021/01/27 09:23:22;;;;;;;12.27;10.57;;;4.20;99.90;;;;;;5098109;28;20207;-91
2021/01/27 09:25:49;;;;;;;13.10;10.33;;;4.20;99.90;;;;;;5096892;28;20167;-91
2021/01/27 09:28:25;;;;;;;11.83;10.57;;;4.40;99.90;;;;;;5097583;28;20210;-90
2021/01/27 09:30:57;;;;;;;11.43;9.90;;;4.30;99.90;;;;;;5096896;28;20166;-91
2021/01/27 09:33:34;;;;;;;14.27;10.23;;;4.40;99.90;;;;;;5097960;28;20589;-92
2021/01/27 09:36:08;;;;;;;11.77;9.63;;;4.40;99.90;;;;;;5096144;28;20702;-91
2021/01/27 09:38:34;;;;;;;12.33;11.00;;;4.60;99.90;;;;;;5095800;28;20226;-90
2021/01/27 09:41:13;;;;;;;13.03;10.77;;;4.40;99.90;;;;;;5096397;28;20163;-91
2021/01/27 09:43:46;;;;;;;13.03;11.57;;;4.40;99.90;;;;;;5097021;28;20178;-96
2021/01/27 09:46:28;;;;;;;11.60;10.00;;;4.40;99.90;;;;;;5096950;28;20634;-90
2021/01/27 09:48:57;;;;;;;12.27;10.87;;;4.40;99.90;;;;;;5096045;28;20175;-91
2021/01/27 09:51:27;;;;;;;12.97;10.87;;;4.50;99.90;;;;;;5097731;28;20171;-90
2021/01/27 09:53:59;;;;;;;13.63;10.37;;;4.50;99.90;;;;;;5096237;28;20178;-90
2021/01/27 09:56:32;;;;;;;14.27;10.63;;;4.50;99.90;;;;;;5097258;28;20222;-88
2021/01/27 09:58:59;;;;;;;15.20;10.77;;;4.60;99.90;;;;;;5096539;28;20177;-91
2021/01/27 10:01:30;;;;;;;14.17;10.80;;;4.60;99.90;;;;;;5096182;28;20266;-89
2021/01/27 10:04:14;;;;;;;14.13;10.67;;;4.50;99.90;;;;;;5095696;28;20178;-86
2021/01/27 10:06:48;;;;;;;15.03;10.67;;;4.50;99.90;;;;;;5114838;28;20170;-90
2021/01/27 10:09:20;;;;;;;13.27;10.33;;;4.60;99.90;;;;;;5096445;28;20227;-81
2021/01/27 10:11:47;;;;;;;13.73;11.07;;;4.50;99.90;;;;;;5114721;28;20167;-78
2021/01/27 10:14:21;;;;;;;15.47;12.57;;;4.60;99.90;;;;;;5114602;28;20250;-88
2021/01/27 10:16:59;;;;;;;17.57;11.53;;;5.30;99.90;;;;;;5109460;28;20202;-90
2021/01/27 10:19:39;;;;;;;15.13;11.50;;;5.00;99.90;;;;;;5112192;28;20198;-86
2021/01/27 10:22:06;;;;;;;13.97;11.67;;;5.00;99.90;;;;;;5112219;28;20190;-88
2021/01/27 10:24:53;;;;;;;15.67;12.17;;;4.90;99.90;;;;;;5117255;28;20194;-89
2021/01/27 10:27:20;;;;;;;18.20;11.77;;;5.10;99.90;;;;;;5125530;28;20215;-93
2021/01/27 10:29:46;;;;;;;18.33;12.70;;;5.30;99.90;;;;;;5121472;28;20166;-88
2021/01/27 10:32:39;;;;;;;15.30;12.20;;;5.10;99.90;;;;;;5123584;28;20167;-88
2021/01/27 10:35:24;;;;;;;18.10;13.00;;;5.20;99.90;;;;;;5118895;28;20175;-88
2021/01/27 10:38:04;;;;;;;15.80;12.30;;;5.00;99.90;;;;;;5123550;28;20195;-89
2021/01/27 10:40:35;;;;;;;18.57;13.10;;;5.00;99.90;;;;;;5118463;28;20174;-89
2021/01/27 10:43:10;;;;;;;16.20;12.47;;;5.00;99.90;;;;;;5112549;28;20622;-87
2021/01/27 10:45:44;;;;;;;18.50;12.60;;;5.00;99.90;;;;;;5114644;28;20735;-88
2021/01/27 10:48:10;;;;;;;19.37;12.73;;;5.00;99.90;;;;;;5115787;28;20189;-85
2021/01/27 10:50:44;;;;;;;15.53;12.13;;;5.10;99.90;;;;;;5119016;27;20250;-85
2021/01/27 10:53:13;;;;;;;15.50;12.07;;;5.00;99.90;;;;;;5119542;27;20181;-86
2021/01/27 10:55:42;;;;;;;18.07;13.83;;;5.00;99.90;;;;;;5137670;27;20173;-88
2021/01/27 10:58:16;;;;;;;16.40;12.40;;;4.90;99.90;;;;;;5137719;27;20231;-88
2021/01/27 11:00:44;;;;;;;17.23;13.57;;;5.00;99.90;;;;;;5119081;27;20166;-88
2021/01/27 11:03:10;;;;;;;15.27;11.80;;;4.90;99.90;;;;;;5118810;27;20167;-87
2021/01/27 11:05:36;;;;;;;19.10;13.30;;;5.00;99.90;;;;;;5118504;27;20257;-86
2021/01/27 11:08:04;;;;;;;16.33;13.40;;;5.00;99.90;;;;;;5115380;28;20253;-84
2021/01/27 11:10:30;;;;;;;16.33;13.23;;;5.20;99.90;;;;;;5115378;28;20190;-84
2021/01/27 11:12:57;;;;;;;16.67;13.13;;;5.30;99.90;;;;;;5115559;28;20541;-86
2021/01/27 11:15:24;;;;;;;18.07;13.07;;;5.40;99.90;;;;;;5109617;28;20167;-86
2021/01/27 11:17:50;;;;;;;18.40;13.97;;;5.30;99.90;;;;;;5096166;28;20211;-85
2021/01/27 11:20:19;;;;;;;20.37;13.50;;;5.30;99.90;;;;;;5094844;28;20164;-87
2021/01/27 11:22:46;;;;;;;19.80;13.57;;;5.30;99.90;;;;;;5115346;28;20715;-85
2021/01/27 11:25:17;;;;;;;18.57;13.60;;;5.30;99.90;;;;;;5115501;28;20171;-87
2021/01/27 11:27:43;;;;;;;16.70;12.57;;;5.30;99.90;;;;;;5118115;28;20175;-85
2021/01/27 11:30:10;;;;;;;22.40;13.30;;;5.30;99.90;;;;;;5117124;28;20179;-87
2021/01/27 11:32:36;;;;;;;19.40;13.77;;;5.40;99.90;;;;;;5115274;28;20538;-88
2021/01/27 11:35:03;;;;;;;17.80;13.27;;;5.30;99.90;;;;;;5120395;28;20173;-88
2021/01/27 11:37:29;;;;;;;17.67;12.57;;;5.30;99.90;;;;;;5115962;28;20237;-87
2021/01/27 11:39:57;;;;;;;20.07;13.47;;;5.30;99.90;;;;;;5118928;28;20178;-88
2021/01/27 11:42:23;;;;;;;17.10;12.63;;;5.50;99.90;;;;;;5118251;28;20182;-89
2021/01/27 11:44:49;;;;;;;19.63;12.93;;;5.40;99.90;;;;;;5121526;27;20218;-88
2021/01/27 11:47:14;;;;;;;19.83;12.53;;;5.30;99.90;;;;;;5120050;27;20170;-89
2021/01/27 11:49:44;;;;;;;20.27;14.37;;;5.30;99.90;;;;;;5120865;27;20169;-88
2021/01/27 11:52:10;;;;;;;19.40;13.60;;;5.60;99.90;;;;;;5121317;27;20525;-89
2021/01/27 11:54:39;;;;;;;20.93;14.70;;;5.40;99.90;;;;;;5119914;27;20171;-90
2021/01/27 11:57:06;;;;;;;19.00;13.00;;;5.40;99.90;;;;;;5118702;27;20259;-88
2021/01/27 11:59:32;;;;;;;20.47;13.43;;;5.40;99.90;;;;;;5120968;27;20699;-88
2021/01/27 12:01:59;;;;;;;16.50;12.27;;;5.40;99.90;;;;;;5119900;27;20269;-87
2021/01/27 12:04:26;;;;;;;18.40;13.13;;;5.50;99.90;;;;;;5123629;27;20176;-87
2021/01/27 12:06:52;;;;;;;17.97;13.40;;;5.50;99.90;;;;;;5125174;28;20191;-88
2021/01/27 12:09:17;;;;;;;19.07;13.67;;;5.50;99.90;;;;;;5104363;28;20179;-88
2021/01/27 12:11:43;;;;;;;18.67;14.17;;;5.60;99.90;;;;;;5100837;28;20483;-87
2021/01/27 12:14:12;;;;;;;21.90;14.70;;;5.60;99.90;;;;;;5098732;28;20171;-88
2021/01/27 12:16:38;;;;;;;21.20;14.43;;;5.80;99.90;;;;;;5135006;27;20258;-91
2021/01/27 12:19:04;;;;;;;20.97;15.30;;;5.80;99.90;;;;;;5121135;27;20497;-91
2021/01/27 12:21:30;;;;;;;18.00;14.50;;;5.70;99.90;;;;;;5120026;27;20170;-89
2021/01/27 12:23:56;;;;;;;22.17;14.30;;;5.80;99.90;;;;;;5119033;27;20212;-92
2021/01/27 12:26:21;;;;;;;21.07;15.10;;;5.70;99.90;;;;;;5119653;27;20634;-86
2021/01/27 12:28:47;;;;;;;17.73;13.77;;;5.80;99.90;;;;;;5120798;27;20224;-87
2021/01/27 12:31:14;;;;;;;21.67;15.07;;;5.80;99.90;;;;;;5119213;27;20181;-90
2021/01/27 12:33:40;;;;;;;21.87;15.83;;;5.90;99.90;;;;;;5118134;27;20170;-88
2021/01/27 12:36:06;;;;;;;22.67;15.43;;;6.00;99.90;;;;;;5118609;27;20215;-88
2021/01/27 12:38:32;;;;;;;25.53;16.50;;;6.00;99.90;;;;;;5136461;27;20245;-87
2021/01/27 12:40:58;;;;;;;28.90;17.37;;;5.90;99.90;;;;;;5117717;27;20167;-88
2021/01/27 12:43:24;;;;;;;27.60;17.47;;;6.00;99.90;;;;;;5117730;27;20234;-88
2021/01/27 12:45:49;;;;;;;26.00;17.07;;;5.90;99.90;;;;;;5108139;28;20159;-85
2021/01/27 12:48:15;;;;;;;26.23;18.27;;;5.70;99.90;;;;;;5097846;28;20220;-88
2021/01/27 12:50:41;;;;;;;25.77;18.17;;;5.90;99.90;;;;;;5095017;28;20182;-88
2021/01/27 12:53:07;;;;;;;29.50;17.57;;;6.10;99.90;;;;;;5097097;28;20634;-85
2021/01/27 12:55:32;;;;;;;29.17;18.27;;;6.10;99.90;;;;;;5096737;28;20178;-88
2021/01/27 12:58:00;;;;;;;31.87;18.17;;;6.00;99.90;;;;;;5096843;28;20255;-87
2021/01/27 13:00:27;;;;;;;28.60;18.13;;;6.00;99.90;;;;;;5097933;28;20535;-86
2021/01/27 13:02:54;;;;;;;34.83;19.73;;;6.00;99.90;;;;;;5096778;28;20637;-88
2021/01/27 13:05:23;;;;;;;28.87;19.83;;;6.00;99.90;;;;;;5097357;28;20171;-86
2021/01/27 13:07:48;;;;;;;30.23;19.13;;;6.00;99.90;;;;;;5110069;28;20240;-87
2021/01/27 13:10:16;;;;;;;35.10;20.77;;;6.20;99.90;;;;;;5113023;28;20191;-90
2021/01/27 13:12:43;;;;;;;32.43;19.47;;;6.10;99.90;;;;;;5112644;28;20650;-89
2021/01/27 13:15:12;;;;;;;34.63;20.07;;;6.10;99.90;;;;;;5117555;27;20181;-89
2021/01/27 13:17:37;;;;;;;32.80;20.10;;;6.10;99.90;;;;;;5117535;27;20605;-88
2021/01/27 13:20:06;;;;;;;36.80;20.97;;;6.20;99.90;;;;;;5121632;27;20238;-89
2021/01/27 13:22:32;;;;;;;34.47;22.20;;;6.20;99.90;;;;;;5116925;27;20662;-87
2021/01/27 13:24:57;;;;;;;32.77;20.90;;;6.30;99.90;;;;;;5097736;28;20266;-87